Time;durP1;ratioP1;P1;durP2;ratioP2;P2;SDS_P1;SDS_P2;PMS_P1;PMS_P2;Temp;Humidity;BMP_temperature;BMP_pressure;BME280_temperature;BME280_humidity;BME280_pressure;Samples;Min_cycle;Max_cycle;Signal;HPM_P1;HPM_P2
2023/03/09 00:00:41;;;;;;;9.07;7.33;;;;;;;11.96;51.52;98877.94;5099376;28;20172;-55
2023/03/09 00:03:15;;;;;;;13.43;8.30;;;;;;;12.04;51.93;98876.22;5099348;28;20172;-55
2023/03/09 00:05:42;;;;;;;11.80;8.77;;;;;;;12.03;51.61;98878.81;5099279;28;20231;-56
2023/03/09 00:08:09;;;;;;;10.53;8.27;;;;;;;12.00;51.71;98874.50;5099262;28;20207;-55
2023/03/09 00:10:41;;;;;;;12.17;8.20;;;;;;;11.95;52.53;98878.78;5098934;28;20271;-55
2023/03/09 00:13:08;;;;;;;11.43;8.60;;;;;;;11.95;51.93;98872.78;5099008;28;20192;-55
2023/03/09 00:15:35;;;;;;;9.03;8.13;;;;;;;11.88;52.47;98877.06;5098817;28;20176;-55
2023/03/09 00:18:02;;;;;;;10.13;8.10;;;;;;;11.69;52.73;98868.47;5098560;28;20183;-55
2023/03/09 00:20:29;;;;;;;12.30;8.40;;;;;;;11.64;53.49;98861.56;5098822;28;20191;-55
2023/03/09 00:22:56;;;;;;;13.83;9.20;;;;;;;11.52;53.91;98856.38;5098868;28;20232;-55
2023/03/09 00:25:23;;;;;;;9.43;8.40;;;;;;;11.53;53.80;98869.25;5098850;28;20183;-55
2023/03/09 00:27:53;;;;;;;11.97;7.63;;;;;;;11.47;54.23;98856.38;5098576;28;20207;-53
2023/03/09 00:30:20;;;;;;;12.00;8.87;;;;;;;11.41;54.17;98845.22;5098681;28;20227;-54
2023/03/09 00:32:47;;;;;;;17.40;7.90;;;;;;;11.40;53.71;98844.34;5098512;28;20207;-54
2023/03/09 00:35:14;;;;;;;9.37;6.67;;;;;;;11.49;53.03;98848.66;5103921;28;20218;-54
2023/03/09 00:37:42;;;;;;;7.40;6.60;;;;;;;11.43;53.29;98841.78;5118844;28;20198;-54
2023/03/09 00:40:10;;;;;;;8.60;7.13;;;;;;;11.50;53.40;98840.94;5117891;28;20420;-54
2023/03/09 00:42:37;;;;;;;8.07;6.90;;;;;;;11.55;52.59;98838.38;5118883;28;20182;-53
2023/03/09 00:45:06;;;;;;;7.27;6.57;;;;;;;11.41;52.25;98811.78;5118978;28;20171;-54
2023/03/09 00:47:33;;;;;;;7.87;6.07;;;;;;;11.55;52.37;98839.25;5118995;28;20202;-54
2023/03/09 00:50:00;;;;;;;8.00;6.13;;;;;;;11.60;52.54;98837.53;5118611;28;20268;-54
2023/03/09 00:52:27;;;;;;;6.67;5.97;;;;;;;11.61;52.22;98831.53;5118667;28;20185;-54
2023/03/09 00:54:54;;;;;;;5.93;5.33;;;;;;;11.62;51.93;98832.41;5118681;28;20186;-54
2023/03/09 00:57:21;;;;;;;7.93;5.90;;;;;;;11.63;51.84;98829.81;5098128;28;20176;-54
2023/03/09 00:59:48;;;;;;;7.17;5.80;;;;;;;11.54;52.00;98822.06;5098108;28;20191;-54
2023/03/09 01:02:16;;;;;;;6.10;5.27;;;;;;;11.57;52.42;98827.22;5097978;28;20171;-56
2023/03/09 01:04:43;;;;;;;7.20;5.50;;;;;;;11.50;52.12;98814.38;5098177;28;20171;-54
2023/03/09 01:07:10;;;;;;;6.27;5.30;;;;;;;11.57;52.15;98826.38;5098051;28;20214;-54
2023/03/09 01:09:37;;;;;;;6.13;5.53;;;;;;;11.57;52.13;98832.38;5098018;28;20200;-54
2023/03/09 01:12:06;;;;;;;6.70;5.70;;;;;;;11.49;51.92;98818.66;5098055;28;20199;-54
2023/03/09 01:14:33;;;;;;;6.97;5.23;;;;;;;11.52;52.02;98831.53;5098060;28;20187;-54
2023/03/09 01:17:00;;;;;;;5.53;4.97;;;;;;;11.47;52.05;98815.22;5098116;28;20192;-55
2023/03/09 01:19:28;;;;;;;11.10;5.63;;;;;;;11.45;52.21;98810.94;5098018;28;20194;-54
2023/03/09 01:21:55;;;;;;;5.77;5.17;;;;;;;11.44;52.49;98809.19;5097988;28;20190;-54
2023/03/09 01:24:22;;;;;;;5.40;4.90;;;;;;;11.44;52.33;98809.19;5101522;28;20265;-55
2023/03/09 01:26:49;;;;;;;5.97;5.23;;;;;;;11.45;52.50;98806.66;5118090;28;20230;-53
2023/03/09 01:29:16;;;;;;;6.13;5.03;;;;;;;11.43;52.33;98810.91;5108205;28;20191;-54
2023/03/09 01:31:43;;;;;;;7.53;5.50;;;;;;;11.44;52.27;98804.94;5105533;28;20258;-54
2023/03/09 01:34:12;;;;;;;5.27;4.50;;;;;;;11.47;52.11;98804.06;5118044;28;20213;-55
2023/03/09 01:36:40;;;;;;;5.80;4.07;;;;;;;11.49;51.88;98804.91;5118000;28;20175;-56
2023/03/09 01:39:07;;;;;;;6.23;4.93;;;;;;;11.48;52.16;98796.34;5115664;28;20187;-54
2023/03/09 01:41:34;;;;;;;5.10;4.50;;;;;;;11.33;51.85;98764.59;5095930;28;20218;-54
2023/03/09 01:44:01;;;;;;;5.40;4.33;;;;;;;11.51;51.96;98786.06;5097544;28;20184;-54
2023/03/09 01:46:34;;;;;;;6.03;4.40;;;;;;;11.57;51.77;98786.06;5097549;28;20179;-54
2023/03/09 01:49:19;;;;;;;5.17;4.67;;;;;;;11.52;51.85;98786.91;5097649;28;20164;-54
2023/03/09 01:51:52;;;;;;;4.83;4.33;;;;;;;11.48;51.69;98786.06;5097325;28;20195;-53
2023/03/09 01:54:23;;;;;;;4.93;4.43;;;;;;;11.50;52.28;98780.94;5097614;28;20182;-54
2023/03/09 01:56:54;;;;;;;6.33;4.60;;;;;;;11.47;52.24;98779.22;5097578;28;20235;-54
2023/03/09 01:59:25;;;;;;;5.70;4.07;;;;;;;11.43;52.11;98782.63;5097610;28;20175;-54
2023/03/09 02:01:52;;;;;;;5.40;4.83;;;;;;;11.39;52.81;98780.06;5097553;28;20167;-54
2023/03/09 02:04:24;;;;;;;4.30;3.90;;;;;;;11.39;52.34;98765.50;5097524;28;20163;-54
2023/03/09 02:06:54;;;;;;;5.47;4.30;;;;;;;11.31;52.81;98764.63;5097533;28;20239;-54
2023/03/09 02:09:27;;;;;;;6.43;4.65;;;;;;;11.18;52.43;98732.88;5096262;28;20493;-54
2023/03/09 02:11:54;;;;;;;7.13;4.17;;;;;;;11.32;53.09;98753.47;5097483;28;20196;-55
2023/03/09 02:14:21;;;;;;;4.53;4.13;;;;;;;11.36;53.18;98767.19;5097399;28;20179;-55
2023/03/09 02:16:48;;;;;;;5.03;4.20;;;;;;;11.42;53.10;98767.19;5116095;28;20246;-55
2023/03/09 02:19:24;;;;;;;4.80;3.93;;;;;;;11.44;52.79;98768.06;5117652;28;20198;-54
2023/03/09 02:21:55;;;;;;;5.53;3.90;;;;;;;11.40;53.31;98761.22;5117762;28;20171;-54
2023/03/09 02:24:31;;;;;;;5.73;3.27;;;;;;;11.43;52.83;98769.75;5117671;28;20167;-55
2023/03/09 02:27:01;;;;;;;3.55;2.80;;;;;;;11.42;52.47;98762.91;5117420;28;20431;-54
2023/03/09 02:29:30;;;;;;;3.50;3.20;;;;;;;11.31;53.10;98741.47;5117519;28;20182;-54
2023/03/09 02:31:57;;;;;;;3.00;2.80;;;;;;;11.51;52.32;98768.06;5117672;28;20182;-54
2023/03/09 02:34:24;;;;;;;3.37;3.07;;;;;;;11.54;52.90;98764.63;5117553;28;20177;-55
2023/03/09 02:36:51;;;;;;;3.40;2.80;;;;;;;11.57;52.39;98759.47;5100824;28;20188;-55
2023/03/09 02:39:27;;;;;;;3.50;3.20;;;;;;;11.59;52.14;98750.06;5097765;28;20190;-54
2023/03/09 02:41:56;;;;;;;3.50;3.20;;;;;;;11.60;52.59;98749.19;5101157;28;20199;-54
2023/03/09 02:44:24;;;;;;;3.83;3.23;;;;;;;11.62;52.51;98742.34;5101135;28;20187;-55
2023/03/09 02:46:52;;;;;;;3.57;2.77;;;;;;;11.63;52.02;98747.50;5101041;28;20235;-54
2023/03/09 02:49:19;;;;;;;4.17;3.20;;;;;;;11.59;52.13;98755.22;5100910;28;20229;-54
2023/03/09 02:51:45;;;;;;;4.17;3.37;;;;;;;11.59;52.25;98753.47;5100900;28;20218;-54
2023/03/09 02:54:12;;;;;;;4.07;2.83;;;;;;;11.59;52.32;98758.63;5100897;28;20168;-54
2023/03/09 02:56:39;;;;;;;3.83;3.27;;;;;;;11.60;51.85;98749.19;5100840;28;20175;-54
2023/03/09 02:59:06;;;;;;;3.13;2.80;;;;;;;11.59;51.93;98735.47;5100773;28;20176;-54
2023/03/09 03:01:32;;;;;;;3.30;3.00;;;;;;;11.62;51.59;98750.06;5100786;28;20180;-54
2023/03/09 03:04:01;;;;;;;4.63;3.43;;;;;;;11.65;51.62;98747.47;5100730;28;20231;-55
2023/03/09 03:06:27;;;;;;;3.10;2.80;;;;;;;11.72;51.46;98747.53;5108757;28;20207;-54
2023/03/09 03:08:54;;;;;;;3.50;3.20;;;;;;;11.68;51.24;98748.34;5120954;28;20251;-54
2023/03/09 03:11:21;;;;;;;3.43;3.07;;;;;;;11.68;50.91;98747.47;5120897;28;20213;-54
2023/03/09 03:13:48;;;;;;;3.60;3.30;;;;;;;11.69;51.60;98770.69;5120964;28;20175;-55
2023/03/09 03:16:14;;;;;;;4.57;3.13;;;;;;;11.66;51.48;98770.66;5120754;28;20181;-54
2023/03/09 03:18:41;;;;;;;4.13;3.60;;;;;;;11.63;52.34;98773.22;5120885;28;20207;-54
2023/03/09 03:21:09;;;;;;;4.90;4.00;;;;;;;11.49;53.43;98779.19;5120737;28;20208;-54
2023/03/09 03:23:36;;;;;;;6.13;5.50;;;;;;;11.22;54.21;98773.16;5120457;28;20167;-54
2023/03/09 03:26:07;;;;;;;10.80;5.60;;;;;;;10.97;55.28;98773.97;5120641;28;20198;-55
2023/03/09 03:28:34;;;;;;;7.67;5.70;;;;;;;10.42;56.45;98713.81;5120266;28;20206;-54
2023/03/09 03:31:01;;;;;;;9.70;6.60;;;;;;;10.73;57.41;98791.00;5120620;28;20210;-55
2023/03/09 03:33:28;;;;;;;9.27;7.20;;;;;;;10.43;58.04;98791.72;5120532;28;20175;-54
2023/03/09 03:35:55;;;;;;;9.33;7.60;;;;;;;10.24;58.79;98795.91;5120440;28;20175;-53
2023/03/09 03:38:23;;;;;;;11.80;7.73;;;;;;;9.96;59.90;98794.81;5099915;28;20205;-54
2023/03/09 03:40:50;;;;;;;10.53;7.70;;;;;;;9.81;60.94;98794.69;5087319;28;20235;-54
2023/03/09 03:43:17;;;;;;;8.93;7.43;;;;;;;9.67;61.56;98796.28;5087803;28;20176;-54
2023/03/09 03:45:43;;;;;;;13.10;7.57;;;;;;;9.64;62.18;98801.38;5091849;28;20195;-54
2023/03/09 03:48:10;;;;;;;9.77;8.27;;;;;;;9.59;62.31;98794.47;5087783;28;20180;-55
2023/03/09 03:50:38;;;;;;;12.37;8.77;;;;;;;9.55;62.82;98795.31;5086734;28;20230;-54
2023/03/09 03:53:05;;;;;;;10.00;8.50;;;;;;;9.56;63.08;98792.75;5085922;28;20171;-54
2023/03/09 03:55:33;;;;;;;14.07;9.07;;;;;;;9.61;63.38;98787.69;5088892;28;20184;-55
2023/03/09 03:58:00;;;;;;;12.63;9.80;;;;;;;9.62;63.67;98789.38;5093123;28;20239;-54
2023/03/09 04:00:27;;;;;;;16.53;11.30;;;;;;;9.51;64.34;98799.53;5087523;28;20200;-54
2023/03/09 04:02:54;;;;;;;14.30;12.33;;;;;;;9.53;64.47;98803.00;5085706;28;20176;-54
2023/03/09 04:05:22;;;;;;;22.23;12.63;;;;;;;9.48;65.29;98800.38;5098708;28;20202;-55
2023/03/09 04:07:54;;;;;;;19.93;13.37;;;;;;;9.55;64.99;98803.88;5099605;28;20174;-55
2023/03/09 04:10:23;;;;;;;13.50;12.10;;;;;;;9.52;65.18;98814.09;5099283;28;20187;-55
2023/03/09 04:12:51;;;;;;;9.13;8.00;;;;;;;9.59;63.37;98813.28;5099414;28;20176;-55
2023/03/09 04:15:18;;;;;;;11.40;8.10;;;;;;;9.66;63.56;98811.66;5099272;28;20176;-55
2023/03/09 04:17:47;;;;;;;14.47;8.67;;;;;;;9.66;64.02;98809.97;5099176;28;20210;-55
2023/03/09 04:20:14;;;;;;;13.43;8.93;;;;;;;9.79;63.51;98806.63;5099031;28;20202;-55
2023/03/09 04:22:41;;;;;;;12.00;8.17;;;;;;;9.89;63.32;98805.00;5098859;28;20176;-55
2023/03/09 04:25:08;;;;;;;11.10;9.67;;;;;;;9.85;63.07;98806.69;5098911;28;20168;-53
2023/03/09 04:27:35;;;;;;;10.33;8.90;;;;;;;9.82;63.76;98809.25;5098697;28;20227;-53
2023/03/09 04:30:04;;;;;;;12.40;7.43;;;;;;;9.87;63.07;98807.56;5098793;28;20184;-54
2023/03/09 04:32:31;;;;;;;12.70;9.10;;;;;;;9.93;63.04;98804.19;5098894;28;20198;-54
2023/03/09 04:34:58;;;;;;;12.63;8.83;;;;;;;9.99;62.87;98807.66;5078625;28;20207;-54
2023/03/09 04:37:24;;;;;;;11.53;9.33;;;;;;;9.95;63.74;98818.75;5078863;28;20210;-55
2023/03/09 04:39:52;;;;;;;12.60;9.37;;;;;;;9.94;63.25;98805.91;5078609;28;20243;-55
2023/03/09 04:42:19;;;;;;;11.23;8.87;;;;;;;9.98;62.97;98808.50;5078878;28;20172;-55
2023/03/09 04:44:46;;;;;;;15.43;9.63;;;;;;;10.01;62.94;98807.66;5078879;28;20190;-56
2023/03/09 04:47:14;;;;;;;12.77;8.50;;;;;;;10.03;63.14;98816.22;5082338;28;20198;-55
2023/03/09 04:49:42;;;;;;;11.67;8.97;;;;;;;10.04;62.82;98797.44;5091260;28;20196;-55
2023/03/09 04:52:10;;;;;;;13.50;8.30;;;;;;;9.95;62.46;98797.34;5078617;28;20216;-55
2023/03/09 04:54:36;;;;;;;13.17;9.07;;;;;;;9.92;63.41;98800.75;5086813;28;20217;-55
2023/03/09 04:57:03;;;;;;;8.07;6.80;;;;;;;9.96;62.58;98799.06;5114693;28;20247;-55
2023/03/09 04:59:30;;;;;;;11.03;7.50;;;;;;;9.92;63.28;98805.03;5083957;28;20188;-55
2023/03/09 05:01:57;;;;;;;7.70;6.80;;;;;;;9.93;62.29;98804.19;5076666;28;20180;-55
2023/03/09 05:04:25;;;;;;;9.80;6.70;;;;;;;10.03;61.45;98800.81;5078301;28;20183;-55
2023/03/09 05:06:52;;;;;;;8.10;6.50;;;;;;;10.06;61.64;98799.16;5084469;28;20191;-55
2023/03/09 05:09:19;;;;;;;9.37;7.33;;;;;;;10.05;62.03;98794.03;5091466;28;20219;-55
2023/03/09 05:11:51;;;;;;;13.43;7.73;;;;;;;10.02;62.46;98805.13;5098356;28;20203;-54
2023/03/09 05:14:19;;;;;;;11.60;6.60;;;;;;;10.08;62.05;98796.56;5098107;28;20218;-54
2023/03/09 05:16:46;;;;;;;8.87;6.77;;;;;;;10.07;62.01;98803.44;5106438;28;20188;-54
2023/03/09 05:19:13;;;;;;;9.87;6.77;;;;;;;9.95;61.68;98798.22;5118693;28;20190;-54
2023/03/09 05:21:41;;;;;;;14.50;6.20;;;;;;;10.11;61.05;98808.59;5107728;28;20186;-54
2023/03/09 05:24:08;;;;;;;21.87;7.40;;;;;;;10.19;60.64;98804.41;5111783;28;20183;-55
2023/03/09 05:26:35;;;;;;;11.50;7.83;;;;;;;10.24;60.77;98811.28;5118180;28;20239;-54
2023/03/09 05:29:01;;;;;;;16.33;11.73;;;;;;;10.22;61.45;98812.97;5117748;28;20203;-54
2023/03/09 05:31:28;;;;;;;16.03;12.27;;;;;;;10.13;62.38;98810.38;5117942;28;20198;-54
2023/03/09 05:33:55;;;;;;;17.33;11.70;;;;;;;10.16;62.51;98806.97;5098586;28;20180;-54
2023/03/09 05:36:24;;;;;;;16.33;10.90;;;;;;;10.20;62.28;98793.28;5091773;28;20206;-55
2023/03/09 05:38:53;;;;;;;17.60;11.43;;;;;;;10.25;62.02;98805.28;5077774;28;20172;-54
2023/03/09 05:41:20;;;;;;;19.50;11.53;;;;;;;10.31;62.11;98807.91;5095936;28;20205;-54
2023/03/09 05:43:47;;;;;;;17.37;11.03;;;;;;;10.29;61.74;98814.75;5097663;28;20180;-54
2023/03/09 05:46:16;;;;;;;19.73;11.07;;;;;;;10.17;61.87;98811.22;5097701;28;20182;-58
2023/03/09 05:48:44;;;;;;;17.03;11.67;;;;;;;10.01;62.03;98800.84;5097598;28;20198;-54
2023/03/09 05:51:11;;;;;;;22.93;12.60;;;;;;;10.06;61.97;98808.56;5097603;28;20195;-54
2023/03/09 05:53:38;;;;;;;20.30;12.40;;;;;;;10.14;61.49;98803.50;5102956;28;20187;-54
2023/03/09 05:56:07;;;;;;;21.30;13.57;;;;;;;10.25;61.54;98812.13;5118052;28;20230;-54
2023/03/09 05:58:34;;;;;;;31.20;17.20;;;;;;;10.36;61.38;98813.06;5117767;28;20198;-54
2023/03/09 06:01:01;;;;;;;34.67;19.63;;;;;;;10.31;61.45;98791.63;5117759;28;20173;-53
2023/03/09 06:03:28;;;;;;;37.03;19.60;;;;;;;10.38;61.89;98808.81;5117517;28;20187;-54
2023/03/09 06:05:59;;;;;;;35.73;23.57;;;;;;;10.45;61.27;98818.25;5117703;28;20172;-54
2023/03/09 06:08:26;;;;;;;36.67;24.17;;;;;;;10.52;61.56;98808.00;5117452;28;20191;-55
2023/03/09 06:10:53;;;;;;;30.87;23.17;;;;;;;10.68;61.45;98816.69;5117369;28;20210;-55
2023/03/09 06:13:21;;;;;;;39.47;20.17;;;;;;;10.83;60.83;98803.03;5117496;28;20171;-55
2023/03/09 06:15:48;;;;;;;25.47;17.60;;;;;;;10.99;60.50;98808.22;5120900;28;20217;-55
2023/03/09 06:18:14;;;;;;;32.73;17.03;;;;;;;11.10;59.87;98797.97;5121816;28;20171;-55
2023/03/09 06:20:41;;;;;;;25.33;16.10;;;;;;;11.29;59.23;98811.75;5111292;28;20220;-55
2023/03/09 06:23:08;;;;;;;29.77;13.80;;;;;;;11.45;57.92;98811.78;5101062;28;20171;-56
2023/03/09 06:25:35;;;;;;;19.27;13.93;;;;;;;11.60;57.18;98814.38;5117039;28;20183;-55
2023/03/09 06:28:01;;;;;;;18.30;14.73;;;;;;;11.77;56.48;98819.56;5104808;28;20203;-56
2023/03/09 06:30:30;;;;;;;23.23;12.70;;;;;;;11.89;55.13;98829.88;5100534;28;20187;-54
2023/03/09 06:32:57;;;;;;;23.70;13.00;;;;;;;12.11;54.85;98835.88;5100988;28;20217;-55
2023/03/09 06:35:24;;;;;;;20.50;14.30;;;;;;;12.27;54.37;98832.44;5094648;28;20211;-55
2023/03/09 06:37:51;;;;;;;20.70;12.37;;;;;;;12.48;53.03;98831.53;5100932;28;20190;-55
2023/03/09 06:40:18;;;;;;;26.77;13.40;;;;;;;12.67;52.33;98831.47;5100815;28;20188;-56
2023/03/09 06:42:46;;;;;;;23.33;12.70;;;;;;;12.74;50.88;98825.47;5101092;28;20175;-55
2023/03/09 06:45:13;;;;;;;25.00;12.03;;;;;;;12.82;49.90;98818.56;5100763;28;20179;-55
2023/03/09 06:47:41;;;;;;;29.03;13.53;;;;;;;12.88;50.27;98815.94;5100463;28;20204;-56
2023/03/09 06:50:09;;;;;;;15.17;11.87;;;;;;;13.01;50.17;98816.75;5100633;28;20209;-56
2023/03/09 06:52:36;;;;;;;19.57;12.13;;;;;;;13.16;49.73;98819.28;5100463;28;20204;-56
2023/03/09 06:55:03;;;;;;;27.10;12.57;;;;;;;13.31;49.33;98815.78;5100541;28;20201;-60
2023/03/09 06:57:30;;;;;;;24.73;13.43;;;;;;;13.39;48.51;98816.59;5100330;28;20173;-55
2023/03/09 06:59:57;;;;;;;19.27;12.70;;;;;;;13.39;48.93;98822.63;5097737;28;20176;-55
2023/03/09 07:02:23;;;;;;;23.70;12.80;;;;;;;13.26;48.90;98815.81;5096306;28;20206;-55
2023/03/09 07:04:52;;;;;;;27.47;18.20;;;;;;;13.06;50.76;98827.91;5100411;28;20198;-55
2023/03/09 07:07:18;;;;;;;39.13;25.00;;;;;;;12.93;52.29;98826.25;5106789;28;20216;-56
2023/03/09 07:09:45;;;;;;;32.40;19.23;;;;;;;12.91;51.96;98825.41;5100196;28;20191;-55
2023/03/09 07:12:12;;;;;;;41.30;21.50;;;;;;;12.94;52.03;98822.78;5100001;28;20263;-56
2023/03/09 07:14:39;;;;;;;34.03;21.77;;;;;;;12.98;52.40;98822.78;5100228;28;20186;-55
2023/03/09 07:17:06;;;;;;;29.20;21.70;;;;;;;12.99;52.90;98832.22;5099587;28;20178;-55
2023/03/09 07:19:32;;;;;;;34.30;17.80;;;;;;;12.64;57.03;98812.59;5099975;28;20183;-54
2023/03/09 07:22:01;;;;;;;35.37;18.73;;;;;;;12.27;57.75;98815.28;5100373;28;20192;-54
2023/03/09 07:24:27;;;;;;;24.70;17.60;;;;;;;12.24;57.44;98817.84;5092537;28;20196;-55
2023/03/09 07:26:54;;;;;;;27.90;15.27;;;;;;;12.50;56.38;98814.38;5096104;28;20184;-54
2023/03/09 07:29:21;;;;;;;26.70;14.57;;;;;;;12.75;55.53;98808.25;5099033;28;20209;-55
2023/03/09 07:31:47;;;;;;;21.37;13.50;;;;;;;13.08;54.22;98810.72;5099549;28;20192;-54
2023/03/09 07:34:14;;;;;;;21.90;12.20;;;;;;;13.35;52.24;98813.16;5102131;28;20168;-57
2023/03/09 07:36:41;;;;;;;24.47;13.87;;;;;;;13.58;52.75;98807.88;5103174;28;20183;-57
2023/03/09 07:39:09;;;;;;;22.43;12.90;;;;;;;13.65;52.54;98814.72;5099908;28;20178;-56
2023/03/09 07:41:36;;;;;;;16.23;12.03;;;;;;;13.58;52.71;98813.88;5100097;28;20191;-57
2023/03/09 07:44:03;;;;;;;14.97;12.17;;;;;;;13.71;52.41;98812.06;5092741;28;20247;-57
2023/03/09 07:46:29;;;;;;;16.27;10.73;;;;;;;13.79;52.42;98806.88;5104289;28;20182;-57
2023/03/09 07:48:56;;;;;;;17.73;11.27;;;;;;;13.65;52.92;98803.53;5099410;28;20218;-55
2023/03/09 07:51:23;;;;;;;12.17;9.37;;;;;;;13.62;52.25;98806.13;5099072;28;20444;-55
2023/03/09 07:53:50;;;;;;;12.43;9.53;;;;;;;13.62;52.36;98801.81;5099335;28;20185;-56
2023/03/09 07:56:18;;;;;;;10.93;9.63;;;;;;;13.86;51.95;98790.44;5099433;28;20183;-56
2023/03/09 07:58:46;;;;;;;14.33;9.17;;;;;;;14.12;51.46;98785.88;5099131;28;20269;-55
2023/03/09 08:01:17;;;;;;;20.53;8.90;;;;;;;14.21;50.57;98790.97;5099745;28;20179;-56
2023/03/09 08:03:44;;;;;;;14.20;8.87;;;;;;;14.35;49.98;98796.91;5099437;28;20192;-55
2023/03/09 08:06:11;;;;;;;14.43;9.33;;;;;;;14.38;50.06;98798.59;5099103;28;20237;-56
2023/03/09 08:08:38;;;;;;;15.07;10.20;;;;;;;14.64;49.56;98797.44;5099165;28;20172;-55
2023/03/09 08:11:05;;;;;;;15.63;9.77;;;;;;;14.88;48.52;98798.03;5099228;28;20228;-56
2023/03/09 08:13:34;;;;;;;10.53;8.87;;;;;;;14.96;47.48;98776.38;5099063;28;20175;-56
2023/03/09 08:16:04;;;;;;;15.00;10.23;;;;;;;15.26;47.44;98793.22;5078852;28;20194;-56
2023/03/09 08:18:31;;;;;;;16.27;9.47;;;;;;;15.46;47.16;98795.53;5078706;28;20186;-55
2023/03/09 08:21:04;;;;;;;16.00;10.10;;;;;;;15.64;45.82;98788.38;5092007;28;20214;-55
2023/03/09 08:23:33;;;;;;;16.77;9.43;;;;;;;15.74;45.50;98786.53;5097996;28;20168;-55
2023/03/09 08:25:59;;;;;;;11.37;8.80;;;;;;;15.81;44.90;98776.03;5098315;28;20178;-56
2023/03/09 08:28:26;;;;;;;12.73;8.93;;;;;;;15.96;44.68;98782.66;5098248;28;20196;-55
2023/03/09 08:30:54;;;;;;;10.27;8.10;;;;;;;16.00;44.22;98786.94;5097793;28;20179;-56
2023/03/09 08:33:21;;;;;;;10.47;8.67;;;;;;;16.22;43.90;98784.81;5095359;28;20188;-55
2023/03/09 08:35:48;;;;;;;13.00;8.07;;;;;;;16.41;43.43;98781.00;5096154;28;20218;-55
2023/03/09 08:38:15;;;;;;;11.80;8.07;;;;;;;16.45;42.87;98772.31;5097572;28;20179;-55
2023/03/09 08:40:43;;;;;;;11.07;9.00;;;;;;;16.30;43.03;98770.84;5095171;28;20191;-56
2023/03/09 08:43:10;;;;;;;8.47;7.37;;;;;;;16.34;43.26;98771.66;5098132;28;20171;-57
2023/03/09 08:45:38;;;;;;;21.77;7.43;;;;;;;16.65;42.86;98771.94;5094288;28;20199;-56
2023/03/09 08:48:06;;;;;;;8.73;6.90;;;;;;;16.80;42.31;98767.31;5097812;28;20172;-56
2023/03/09 08:50:33;;;;;;;9.13;7.10;;;;;;;17.11;41.07;98776.16;5097503;28;20202;-57
2023/03/09 08:52:59;;;;;;;11.40;6.87;;;;;;;17.22;40.63;98775.09;5097159;28;20195;-59
2023/03/09 08:55:26;;;;;;;9.53;7.23;;;;;;;17.39;40.41;98778.13;5093030;28;20178;-56
2023/03/09 08:57:55;;;;;;;12.00;6.27;;;;;;;17.44;39.86;98771.13;5097317;28;20198;-56
2023/03/09 09:00:27;;;;;;;10.37;6.70;;;;;;;17.24;40.14;98781.94;5097384;28;20215;-63
2023/03/09 09:02:54;;;;;;;7.33;6.40;;;;;;;17.11;39.79;98746.78;5103201;28;20190;-55
2023/03/09 09:05:22;;;;;;;11.63;6.67;;;;;;;17.49;39.77;98777.91;5092739;28;20200;-55
2023/03/09 09:07:48;;;;;;;9.20;6.40;;;;;;;17.59;39.48;98782.03;5092757;28;20225;-55
2023/03/09 09:10:15;;;;;;;8.37;7.10;;;;;;;17.71;39.41;98772.25;5084773;28;20187;-55
2023/03/09 09:12:42;;;;;;;10.77;7.40;;;;;;;17.79;39.14;98776.38;5077734;28;20216;-56
2023/03/09 09:15:12;;;;;;;9.30;6.43;;;;;;;17.89;39.09;98771.78;5077511;28;20202;-56
2023/03/09 09:17:39;;;;;;;10.73;6.27;;;;;;;17.89;38.79;98762.25;5089948;28;20184;-55
2023/03/09 09:20:07;;;;;;;8.37;6.30;;;;;;;17.89;38.80;98757.06;5084311;28;20180;-56
2023/03/09 09:22:35;;;;;;;9.33;6.83;;;;;;;18.04;38.49;98756.69;5086401;28;20218;-56
2023/03/09 09:25:02;;;;;;;11.77;6.83;;;;;;;18.14;38.56;98750.34;5097437;28;20188;-57
2023/03/09 09:27:29;;;;;;;11.63;6.53;;;;;;;18.28;38.34;98749.97;5096949;28;20217;-56
2023/03/09 09:29:56;;;;;;;9.03;6.17;;;;;;;18.45;38.30;98747.78;5095583;28;20239;-56
2023/03/09 09:32:23;;;;;;;10.00;6.17;;;;;;;18.52;37.54;98746.75;5096698;28;20203;-55
2023/03/09 09:34:49;;;;;;;6.10;5.50;;;;;;;18.62;37.46;98735.16;5096838;28;20176;-56
2023/03/09 09:37:17;;;;;;;10.73;6.33;;;;;;;18.84;36.81;98730.22;5094315;28;20194;-56
2023/03/09 09:39:45;;;;;;;7.43;5.43;;;;;;;18.92;36.30;98730.84;5096867;28;20198;-57
2023/03/09 09:42:23;;;;;;;8.70;5.67;;;;;;;19.08;35.76;98732.09;5097033;28;20186;-56
2023/03/09 09:44:53;;;;;;;12.07;5.73;;;;;;;19.13;35.87;98737.16;5097174;28;20178;-56
2023/03/09 09:47:22;;;;;;;10.27;5.17;;;;;;;19.18;35.23;98725.69;5092553;28;20191;-56
2023/03/09 09:49:52;;;;;;;7.70;4.60;;;;;;;19.26;34.82;98734.13;5096321;28;20168;-56
2023/03/09 09:52:30;;;;;;;8.50;4.73;;;;;;;19.29;34.93;98726.22;5094683;28;20199;-61
2023/03/09 09:55:05;;;;;;;4.60;3.67;;;;;;;19.20;33.50;98723.91;5096530;28;20229;-56
2023/03/09 09:57:39;;;;;;;4.40;3.57;;;;;;;19.25;33.62;98723.78;5096496;28;20175;-56
2023/03/09 10:00:12;;;;;;;5.90;4.23;;;;;;;19.41;33.99;98719.81;5109007;28;20201;-56
2023/03/09 10:02:57;;;;;;;4.70;3.53;;;;;;;19.35;33.64;98706.94;5107937;28;20180;-55
2023/03/09 10:05:31;;;;;;;7.40;4.20;;;;;;;19.41;33.64;98712.88;5105755;28;20183;-55
2023/03/09 10:08:10;;;;;;;4.30;3.87;;;;;;;19.68;33.46;98712.84;5103000;28;20187;-56
2023/03/09 10:10:40;;;;;;;3.97;3.63;;;;;;;19.67;33.06;98685.94;5077513;28;20179;-57
2023/03/09 10:13:15;;;;;;;3.83;3.43;;;;;;;19.91;32.86;98703.34;5096278;28;20296;-56
2023/03/09 10:15:43;;;;;;;6.43;3.83;;;;;;;19.65;32.65;98637.38;5096451;28;20187;-56
2023/03/09 10:18:14;;;;;;;6.87;4.00;;;;;;;20.04;32.65;98695.97;5096555;28;20175;-55
2023/03/09 10:20:46;;;;;;;7.10;3.97;;;;;;;20.14;32.49;98678.25;5093782;28;20176;-56
2023/03/09 10:23:20;;;;;;;10.97;4.83;;;;;;;20.19;32.60;98669.34;5076345;28;20192;-55
2023/03/09 10:25:50;;;;;;;7.23;4.37;;;;;;;20.28;32.52;98670.81;5076085;28;20178;-56
2023/03/09 10:28:20;;;;;;;9.33;5.10;;;;;;;20.52;32.44;98664.69;5076175;28;20227;-56
2023/03/09 10:30:56;;;;;;;10.10;5.70;;;;;;;20.68;32.21;98665.84;5076379;28;20172;-55
2023/03/09 10:33:32;;;;;;;9.03;5.33;;;;;;;20.94;31.85;98663.09;5076411;28;20263;-56
2023/03/09 10:36:06;;;;;;;7.67;4.57;;;;;;;21.17;31.11;98654.38;5076587;28;20164;-56
2023/03/09 10:38:33;;;;;;;4.93;4.03;;;;;;;21.01;31.37;98656.69;5076527;28;20183;-56
2023/03/09 10:41:01;;;;;;;7.07;3.80;;;;;;;21.08;31.47;98659.97;5076323;28;20169;-56
2023/03/09 10:43:30;;;;;;;3.97;3.50;;;;;;;21.03;31.32;98635.75;5088907;28;20184;-56
2023/03/09 10:46:10;;;;;;;8.97;5.60;;;;;;;21.00;31.63;98644.56;5096415;28;20175;-55
2023/03/09 10:48:36;;;;;;;7.80;6.17;;;;;;;20.95;31.55;98643.03;5083031;28;20202;-56
2023/03/09 10:51:05;;;;;;;5.10;4.27;;;;;;;20.69;31.58;98624.91;5098501;28;20182;-56
2023/03/09 10:53:36;;;;;;;9.33;4.70;;;;;;;20.54;31.73;98622.00;5115344;28;20233;-56
2023/03/09 10:56:19;;;;;;;7.13;4.90;;;;;;;20.45;32.10;98614.50;5116999;28;20171;-55
2023/03/09 10:58:46;;;;;;;10.10;5.13;;;;;;;20.19;32.37;98617.19;5116738;28;20181;-56
2023/03/09 11:01:23;;;;;;;9.37;4.47;;;;;;;20.28;32.25;98603.84;5113208;28;20168;-57
2023/03/09 11:03:49;;;;;;;5.30;3.80;;;;;;;20.37;32.37;98600.91;5100390;28;20201;-56
2023/03/09 11:06:34;;;;;;;7.73;4.17;;;;;;;20.36;32.35;98600.94;5100050;28;20168;-56
2023/03/09 11:09:07;;;;;;;7.50;4.33;;;;;;;20.38;32.03;98593.94;5100176;28;20186;-55
2023/03/09 11:11:37;;;;;;;7.50;4.57;;;;;;;20.29;32.11;98589.91;5099467;28;20218;-55
2023/03/09 11:14:04;;;;;;;7.57;5.40;;;;;;;20.26;32.47;98589.16;5099619;28;20254;-55
2023/03/09 11:16:34;;;;;;;11.57;5.67;;;;;;;20.31;32.42;98582.00;5099667;28;20172;-55
2023/03/09 11:19:12;;;;;;;12.77;4.40;;;;;;;20.31;32.32;98582.84;5099719;28;20215;-55
2023/03/09 11:21:44;;;;;;;8.23;4.63;;;;;;;20.25;32.20;98580.47;5080242;28;20187;-55
2023/03/09 11:24:14;;;;;;;6.93;4.30;;;;;;;20.10;31.73;98575.81;5079817;28;20176;-56
2023/03/09 11:26:45;;;;;;;7.83;4.83;;;;;;;20.04;31.71;98555.16;5079624;28;20180;-57
2023/03/09 11:29:22;;;;;;;11.73;5.00;;;;;;;19.96;32.14;98554.59;5079276;28;20200;-56
2023/03/09 11:31:49;;;;;;;9.40;4.40;;;;;;;20.00;31.96;98559.63;5081261;28;20188;-57
2023/03/09 11:34:20;;;;;;;4.40;4.00;;;;;;;19.95;32.03;98558.94;5099303;28;20241;-57